Terminal Aerodrome Forecast
Issued by NWS

Home | Current Version | Previous Version | Text Only | Print | Product List | Glossary On
Versions: 1 2 3 4 5 6 7 8 9 10 11 12 13
000
FTUS43 KDDC 310540
TAFHYS
TAF
KHYS 310540Z 3106/0106 36006KT P6SM SKC
     FM311100 03012KT P6SM BKN009
     FM311400 05009KT P6SM SCT015
     FM311800 10012KT P6SM SKC=

USA.gov is the U.S. government's official web portal to all federal, state and local government web resources and services.